Aviation Digital Data Service (ADDS)

Output produced by METARs form (0958 UTC 19 January 2019)
found at http://www.aviationweather.gov/metar/data/
 
LYPG 190930Z VRB02KT 8000 -RA FEW007 BKN030 OVC070 06/06 Q1018 NOSIG
TAF LYPG 190500Z 1906/2006 01005KT 7000 FEW005 BKN033 BKN070 TX09/1913Z
TN05/1906Z 
     TEMPO 1906/2006 4000 RA BR 
     PROB30 
     TEMPO 1906/1909 TSRA FEW010 FEW030CB BKN033 BKN070
       
LYTV 190930Z 00000KT 8000 -RA FEW033 SCT040 BKN080 07/07 Q1017 NOSIG
TAF LYTV 190500Z 1906/2006 14006KT 9999 FEW010 BKN030 BKN070 TX12/1913Z
TN07/1906Z 
     TEMPO 1906/2006 5000 RA BR 
     PROB30 
     TEMPO 1906/1912 3000 +TSRA FEW010 FEW027CB BKN030 BKN070